createdAt,value
2019-03-12T00:00:48.496Z,28.85
2019-03-12T00:05:54.789Z,25.35
2019-03-12T00:10:59.333Z,23.83
2019-03-12T00:16:05.537Z,25.10
2019-03-12T00:21:08.867Z,25.52
2019-03-12T00:26:16.843Z,25.40
2019-03-12T00:31:20.222Z,25.57
2019-03-12T00:36:24.848Z,25.45
2019-03-12T00:41:31.736Z,25.45
2019-03-12T00:46:38.886Z,26.87
2019-03-12T00:51:43.161Z,26.65
2019-03-12T00:56:50.005Z,24.50
2019-03-12T01:01:57.362Z,23.52
2019-03-12T01:07:02.375Z,24.47
2019-03-12T01:12:10.147Z,26.15
2019-03-12T01:17:17.039Z,25.50
2019-03-12T01:22:26.093Z,22.75
2019-03-12T01:27:33.180Z,21.80
2019-03-12T01:32:36.498Z,20.27
2019-03-12T01:37:42.723Z,19.98
2019-03-12T01:42:48.427Z,19.02
2019-03-12T01:47:51.752Z,19.73
2019-03-12T01:52:55.145Z,18.50
2019-03-12T01:57:58.526Z,18.60
2019-03-12T02:03:01.958Z,18.87
2019-03-12T02:08:06.956Z,18.42
2019-03-12T02:13:11.681Z,17.45
2019-03-12T02:18:16.243Z,15.43
2019-03-12T02:23:21.485Z,14.98
2019-03-12T02:28:25.645Z,16.15
2019-03-12T02:33:28.966Z,15.40
2019-03-12T02:38:34.656Z,16.07
2019-03-12T02:43:39.901Z,15.43
2019-03-12T02:48:43.457Z,16.75
2019-03-12T02:53:52.024Z,16.85
2019-03-12T02:58:57.148Z,17.75
2019-03-12T03:04:01.042Z,17.75
2019-03-12T03:09:10.168Z,19.82
2019-03-12T03:14:34.617Z,22.15
2019-03-12T03:19:39.223Z,22.02
2019-03-12T03:24:42.973Z,22.45
2019-03-12T03:29:47.101Z,22.10
2019-03-12T03:34:50.816Z,23.42
2019-03-12T03:39:54.369Z,21.82
2019-03-12T03:44:57.870Z,21.57
2019-03-12T03:50:02.892Z,19.87
2019-03-12T03:55:09.631Z,19.77
2019-03-12T04:00:15.976Z,17.48
2019-03-12T04:05:21.071Z,17.62
2019-03-12T04:10:26.951Z,17.07
2019-03-12T04:15:30.521Z,17.32
2019-03-12T04:20:33.935Z,16.80
2019-03-12T04:25:37.386Z,15.90
2019-03-12T04:30:42.501Z,16.02
2019-03-12T04:35:49.457Z,16.82
2019-03-12T04:40:53.644Z,16.67
2019-03-12T04:46:00.050Z,17.37
2019-03-12T04:51:04.639Z,17.00
2019-03-12T04:56:08.508Z,16.85
2019-03-12T05:01:13.526Z,16.65
2019-03-12T05:06:19.609Z,16.73
2019-03-12T05:11:23.547Z,17.37
2019-03-12T05:16:27.420Z,17.95
2019-03-12T05:21:32.555Z,18.90
2019-03-12T05:26:35.895Z,18.50
2019-03-12T05:31:39.266Z,18.23
2019-03-12T05:36:46.154Z,16.55
2019-03-12T05:41:49.580Z,18.05
2019-03-12T05:46:52.950Z,18.20
2019-03-12T05:51:56.222Z,18.70
2019-03-12T05:57:00.972Z,18.15
2019-03-12T06:02:05.885Z,17.75
2019-03-12T06:07:12.048Z,18.37
2019-03-12T06:12:16.726Z,16.77
2019-03-12T06:17:20.077Z,19.30
2019-03-12T06:22:23.486Z,18.23
2019-03-12T06:27:26.843Z,16.67
2019-03-12T06:32:32.026Z,24.00
2019-03-12T06:37:49.094Z,21.27
2019-03-12T06:43:10.542Z,16.52
2019-03-12T06:48:30.723Z,16.93
2019-03-12T06:53:39.214Z,15.63
2019-03-12T06:58:53.243Z,21.77
2019-03-12T07:03:58.283Z,22.48
2019-03-12T07:09:03.458Z,17.45
2019-03-12T07:14:14.170Z,16.87
2019-03-12T07:19:36.467Z,15.68
2019-03-12T07:25:17.656Z,13.75
2019-03-12T07:30:34.440Z,11.35
2019-03-12T07:35:42.352Z,11.90
2019-03-12T07:40:50.053Z,12.35
2019-03-12T07:46:01.482Z,9.88
2019-03-12T07:51:19.733Z,12.03
2019-03-12T07:56:28.244Z,14.00
2019-03-12T08:01:33.811Z,11.60
2019-03-12T08:06:55.002Z,8.55
2019-03-12T08:12:16.602Z,6.95
2019-03-12T08:17:34.633Z,7.22
2019-03-12T08:22:45.476Z,9.48
2019-03-12T08:28:02.464Z,9.03
2019-03-12T08:33:07.562Z,9.85
2019-03-12T08:38:21.821Z,9.45
2019-03-12T08:43:27.028Z,9.73
2019-03-12T08:48:32.105Z,8.00
2019-03-12T08:53:46.347Z,8.70
2019-03-12T08:59:00.978Z,7.10
2019-03-12T09:04:07.998Z,7.72
2019-03-12T09:09:23.376Z,6.20
2019-03-12T09:14:31.902Z,6.97
2019-03-12T09:19:42.857Z,6.50
2019-03-12T09:24:56.831Z,5.62
2019-03-12T09:30:05.779Z,4.62
2019-03-12T09:35:13.269Z,3.70
2019-03-12T09:40:19.670Z,3.33
2019-03-12T09:45:25.079Z,2.60
2019-03-12T09:50:33.098Z,2.67
2019-03-12T09:55:51.682Z,3.50
2019-03-12T10:01:07.724Z,2.50
2019-03-12T10:06:14.135Z,2.00
2019-03-12T10:11:21.885Z,2.72
2019-03-12T10:16:38.187Z,1.90
2019-03-12T10:21:55.920Z,2.47
2019-03-12T10:27:20.900Z,2.20
2019-03-12T10:32:27.108Z,2.80
2019-03-12T10:37:33.066Z,2.50
2019-03-12T10:42:46.814Z,2.08
2019-03-12T10:47:52.589Z,1.92
2019-03-12T10:52:56.103Z,1.70
2019-03-12T10:58:00.798Z,1.80
2019-03-12T11:03:04.311Z,1.85
2019-03-12T11:08:07.697Z,2.20
2019-03-12T11:13:15.694Z,2.30
2019-03-12T11:18:20.494Z,2.47
2019-03-12T11:23:23.951Z,3.17
2019-03-12T11:28:27.866Z,2.85
2019-03-12T11:33:32.136Z,2.72
2019-03-12T11:38:35.549Z,2.90
2019-03-12T11:43:38.980Z,2.80
2019-03-12T11:48:42.717Z,3.12
2019-03-12T11:53:46.447Z,4.70
2019-03-12T11:58:49.800Z,3.00
2019-03-12T12:03:55.417Z,2.80
2019-03-12T12:08:58.809Z,8.38
2019-03-12T12:14:02.176Z,4.15
2019-03-12T12:19:06.161Z,3.00
2019-03-12T12:24:09.531Z,3.87
2019-03-12T12:29:13.048Z,2.70
2019-03-12T12:34:16.429Z,2.47
2019-03-12T12:39:19.754Z,2.30
2019-03-12T12:44:25.433Z,2.55
2019-03-12T12:49:31.346Z,2.67
2019-03-12T12:54:34.698Z,2.58
2019-03-12T12:59:38.662Z,2.35
2019-03-12T13:04:42.722Z,2.40
2019-03-12T13:09:46.167Z,2.60
2019-03-12T13:14:49.649Z,3.80
2019-03-12T13:19:53.082Z,3.08
2019-03-12T13:24:56.608Z,2.80
2019-03-12T13:30:01.350Z,3.77
2019-03-12T13:35:06.721Z,2.47
2019-03-12T13:40:15.284Z,19.15
2019-03-12T13:45:22.595Z,3.40
2019-03-12T13:50:26.712Z,2.70
2019-03-12T13:55:31.818Z,3.42
2019-03-12T14:00:36.823Z,3.77
2019-03-12T14:05:43.100Z,2.67
2019-03-12T14:10:46.494Z,2.30
2019-03-12T14:15:50.117Z,2.20
2019-03-12T14:21:07.423Z,4.30
2019-03-12T14:26:11.627Z,4.75
2019-03-12T14:31:14.942Z,3.50
2019-03-12T14:36:18.783Z,3.72
2019-03-12T14:41:22.122Z,3.80
2019-03-12T14:46:27.826Z,4.55
2019-03-12T14:51:37.940Z,6.00
2019-03-12T14:56:43.001Z,8.38
2019-03-12T15:01:48.666Z,9.20
2019-03-12T15:06:51.970Z,9.00
2019-03-12T15:12:02.115Z,12.25
2019-03-12T15:17:11.162Z,9.73
2019-03-12T15:22:14.616Z,11.40
2019-03-12T15:27:18.272Z,10.72
2019-03-12T15:32:22.468Z,10.48
2019-03-12T15:37:29.339Z,9.73
2019-03-12T15:42:33.059Z,10.40
2019-03-12T15:47:38.881Z,9.88
2019-03-12T15:52:41.690Z,12.65
2019-03-12T15:57:47.328Z,12.37
2019-03-12T16:02:52.821Z,11.38
2019-03-12T16:07:57.206Z,12.33
2019-03-12T16:13:02.265Z,13.32
2019-03-12T16:18:05.677Z,14.75
2019-03-12T16:23:18.530Z,14.45
2019-03-12T16:28:24.792Z,14.00
2019-03-12T16:38:59.830Z,14.25
2019-03-12T16:44:11.979Z,13.10
2019-03-12T16:49:22.477Z,12.05
2019-03-12T16:59:53.464Z,13.90
2019-03-12T17:05:02.748Z,16.40
2019-03-12T17:10:12.296Z,12.30
2019-03-12T17:15:21.854Z,11.68
2019-03-12T17:20:25.569Z,12.10
2019-03-12T17:25:32.023Z,12.18
2019-03-12T17:30:38.693Z,13.10
2019-03-12T17:35:52.839Z,15.05
2019-03-12T17:41:00.002Z,14.75
2019-03-12T17:46:05.649Z,15.72
2019-03-12T17:51:10.574Z,14.65
2019-03-12T17:56:16.432Z,13.88
2019-03-12T18:06:46.636Z,14.03
2019-03-12T18:11:50.552Z,14.03
2019-03-12T18:16:57.879Z,14.65
2019-03-12T18:22:04.956Z,15.20
2019-03-12T18:27:26.087Z,14.07
2019-03-12T18:32:46.451Z,17.32
2019-03-12T18:38:03.551Z,16.87
2019-03-12T18:54:11.830Z,19.32
2019-03-12T20:17:09.502Z,25.10
2019-03-12T20:22:41.591Z,29.05
2019-03-12T20:34:13.444Z,25.10
2019-03-12T20:39:44.822Z,26.23
2019-03-12T20:55:58.992Z,31.52
2019-03-12T21:13:32.517Z,29.60
2019-03-12T21:19:13.302Z,35.08
2019-03-12T21:24:36.067Z,32.78
2019-03-12T21:35:14.754Z,34.70
2019-03-12T21:40:22.503Z,36.73
2019-03-12T21:56:40.318Z,36.13
2019-03-12T22:01:44.038Z,34.45
2019-03-12T22:06:52.044Z,35.45
2019-03-12T22:12:01.321Z,34.23
2019-03-12T22:17:07.525Z,36.73
2019-03-12T22:22:18.546Z,34.88
2019-03-12T22:27:27.746Z,34.60
2019-03-12T22:32:32.410Z,36.10
2019-03-12T22:43:05.507Z,34.48
2019-03-12T22:53:21.091Z,31.97
2019-03-12T22:58:29.555Z,33.10
2019-03-12T23:03:34.592Z,28.95
2019-03-12T23:08:42.721Z,30.85
2019-03-12T23:13:49.331Z,29.05
2019-03-12T23:18:54.903Z,28.98
2019-03-12T23:24:01.438Z,27.60
2019-03-12T23:29:07.423Z,27.25
2019-03-12T23:34:14.722Z,25.68
2019-03-12T23:39:24.895Z,25.62
2019-03-12T23:44:28.349Z,24.70
2019-03-12T23:54:57.776Z,24.82
